sensor_id;sensor_type;location;lat;lon;timestamp;P1;durP1;ratioP1;P2;durP2;ratioP2
19621;SDS011;9958;33.196;-97.114;2024-03-25T00:02:05;6.65;;;4.07;;
19621;SDS011;9958;33.196;-97.114;2024-03-25T00:04:32;6.72;;;4.53;;
19621;SDS011;9958;33.196;-97.114;2024-03-25T00:07:00;8.68;;;4.43;;
19621;SDS011;9958;33.196;-97.114;2024-03-25T00:09:28;6.13;;;4.03;;
19621;SDS011;9958;33.196;-97.114;2024-03-25T00:11:56;5.15;;;4.65;;
19621;SDS011;9958;33.196;-97.114;2024-03-25T00:14:25;6.40;;;4.20;;
19621;SDS011;9958;33.196;-97.114;2024-03-25T00:16:53;6.28;;;4.05;;
19621;SDS011;9958;33.196;-97.114;2024-03-25T00:19:20;6.82;;;3.88;;
19621;SDS011;9958;33.196;-97.114;2024-03-25T00:21:48;5.50;;;4.10;;
19621;SDS011;9958;33.196;-97.114;2024-03-25T00:24:15;6.95;;;4.30;;
19621;SDS011;9958;33.196;-97.114;2024-03-25T00:26:43;6.60;;;4.05;;
19621;SDS011;9958;33.196;-97.114;2024-03-25T00:29:10;4.57;;;4.00;;
19621;SDS011;9958;33.196;-97.114;2024-03-25T00:31:41;5.53;;;4.20;;
19621;SDS011;9958;33.196;-97.114;2024-03-25T00:34:08;6.60;;;3.97;;
19621;SDS011;9958;33.196;-97.114;2024-03-25T00:36:36;6.80;;;4.47;;
19621;SDS011;9958;33.196;-97.114;2024-03-25T00:39:03;6.55;;;4.43;;
19621;SDS011;9958;33.196;-97.114;2024-03-25T00:41:32;4.75;;;3.58;;
19621;SDS011;9958;33.196;-97.114;2024-03-25T00:43:59;10.00;;;4.10;;
19621;SDS011;9958;33.196;-97.114;2024-03-25T00:46:27;5.05;;;3.78;;
19621;SDS011;9958;33.196;-97.114;2024-03-25T00:48:56;4.75;;;4.03;;
19621;SDS011;9958;33.196;-97.114;2024-03-25T00:51:24;5.38;;;3.95;;
19621;SDS011;9958;33.196;-97.114;2024-03-25T00:53:51;4.15;;;3.75;;
19621;SDS011;9958;33.196;-97.114;2024-03-25T00:56:19;4.55;;;3.83;;
19621;SDS011;9958;33.196;-97.114;2024-03-25T00:58:46;6.90;;;3.65;;
19621;SDS011;9958;33.196;-97.114;2024-03-25T01:01:15;4.53;;;4.03;;
19621;SDS011;9958;33.196;-97.114;2024-03-25T01:03:42;5.55;;;4.07;;
19621;SDS011;9958;33.196;-97.114;2024-03-25T01:06:12;5.85;;;3.95;;
19621;SDS011;9958;33.196;-97.114;2024-03-25T01:08:39;5.32;;;3.83;;
19621;SDS011;9958;33.196;-97.114;2024-03-25T01:11:07;4.63;;;3.67;;
19621;SDS011;9958;33.196;-97.114;2024-03-25T01:13:34;6.68;;;3.75;;
19621;SDS011;9958;33.196;-97.114;2024-03-25T01:16:02;4.25;;;3.72;;
19621;SDS011;9958;33.196;-97.114;2024-03-25T01:18:30;4.38;;;3.97;;
19621;SDS011;9958;33.196;-97.114;2024-03-25T01:20:58;5.57;;;4.32;;
19621;SDS011;9958;33.196;-97.114;2024-03-25T01:23:27;4.03;;;3.63;;
19621;SDS011;9958;33.196;-97.114;2024-03-25T01:25:55;3.60;;;3.03;;
19621;SDS011;9958;33.196;-97.114;2024-03-25T01:28:22;5.28;;;3.55;;
19621;SDS011;9958;33.196;-97.114;2024-03-25T01:30:51;5.80;;;3.92;;
19621;SDS011;9958;33.196;-97.114;2024-03-25T01:33:19;3.83;;;3.30;;
19621;SDS011;9958;33.196;-97.114;2024-03-25T01:35:47;5.18;;;4.15;;
19621;SDS011;9958;33.196;-97.114;2024-03-25T01:38:14;5.68;;;3.85;;
19621;SDS011;9958;33.196;-97.114;2024-03-25T01:40:44;4.90;;;3.38;;
19621;SDS011;9958;33.196;-97.114;2024-03-25T01:43:11;7.60;;;3.92;;
19621;SDS011;9958;33.196;-97.114;2024-03-25T01:45:39;5.43;;;3.90;;
19621;SDS011;9958;33.196;-97.114;2024-03-25T01:48:08;5.55;;;3.53;;
19621;SDS011;9958;33.196;-97.114;2024-03-25T01:50:38;5.32;;;3.28;;
19621;SDS011;9958;33.196;-97.114;2024-03-25T01:53:08;4.88;;;3.90;;
19621;SDS011;9958;33.196;-97.114;2024-03-25T01:55:36;5.20;;;3.72;;
19621;SDS011;9958;33.196;-97.114;2024-03-25T01:58:06;4.32;;;3.75;;
19621;SDS011;9958;33.196;-97.114;2024-03-25T02:00:34;3.58;;;3.28;;
19621;SDS011;9958;33.196;-97.114;2024-03-25T02:03:02;4.57;;;2.92;;
19621;SDS011;9958;33.196;-97.114;2024-03-25T02:05:31;4.43;;;3.42;;
19621;SDS011;9958;33.196;-97.114;2024-03-25T02:08:01;4.30;;;3.58;;
19621;SDS011;9958;33.196;-97.114;2024-03-25T02:10:30;4.68;;;3.65;;
19621;SDS011;9958;33.196;-97.114;2024-03-25T02:12:58;5.78;;;3.40;;
19621;SDS011;9958;33.196;-97.114;2024-03-25T02:15:28;4.22;;;3.00;;
19621;SDS011;9958;33.196;-97.114;2024-03-25T02:17:55;3.78;;;3.20;;
19621;SDS011;9958;33.196;-97.114;2024-03-25T02:20:23;5.43;;;3.35;;
19621;SDS011;9958;33.196;-97.114;2024-03-25T02:22:51;4.22;;;3.33;;
19621;SDS011;9958;33.196;-97.114;2024-03-25T02:25:19;3.85;;;2.92;;
19621;SDS011;9958;33.196;-97.114;2024-03-25T02:27:50;6.80;;;3.05;;
19621;SDS011;9958;33.196;-97.114;2024-03-25T02:30:18;4.55;;;3.65;;
19621;SDS011;9958;33.196;-97.114;2024-03-25T02:32:45;5.15;;;3.22;;
19621;SDS011;9958;33.196;-97.114;2024-03-25T02:35:14;4.47;;;3.10;;
19621;SDS011;9958;33.196;-97.114;2024-03-25T02:37:42;5.05;;;2.80;;
19621;SDS011;9958;33.196;-97.114;2024-03-25T02:40:11;3.20;;;2.83;;
19621;SDS011;9958;33.196;-97.114;2024-03-25T02:42:38;8.07;;;3.15;;
19621;SDS011;9958;33.196;-97.114;2024-03-25T02:45:09;3.13;;;2.35;;
19621;SDS011;9958;33.196;-97.114;2024-03-25T02:47:36;5.22;;;2.70;;
19621;SDS011;9958;33.196;-97.114;2024-03-25T02:50:05;5.82;;;2.70;;
19621;SDS011;9958;33.196;-97.114;2024-03-25T02:52:32;6.55;;;2.70;;
19621;SDS011;9958;33.196;-97.114;2024-03-25T02:55:00;7.70;;;2.55;;
19621;SDS011;9958;33.196;-97.114;2024-03-25T02:57:27;6.20;;;2.97;;
19621;SDS011;9958;33.196;-97.114;2024-03-25T02:59:56;3.03;;;2.40;;
19621;SDS011;9958;33.196;-97.114;2024-03-25T03:02:24;5.90;;;2.50;;
19621;SDS011;9958;33.196;-97.114;2024-03-25T03:04:53;5.20;;;3.08;;
19621;SDS011;9958;33.196;-97.114;2024-03-25T03:07:20;4.68;;;2.67;;
19621;SDS011;9958;33.196;-97.114;2024-03-25T03:09:48;6.22;;;2.72;;
19621;SDS011;9958;33.196;-97.114;2024-03-25T03:12:15;3.63;;;2.30;;
19621;SDS011;9958;33.196;-97.114;2024-03-25T03:14:43;2.97;;;2.50;;
19621;SDS011;9958;33.196;-97.114;2024-03-25T03:17:10;6.60;;;2.55;;
19621;SDS011;9958;33.196;-97.114;2024-03-25T03:19:40;5.70;;;2.50;;
19621;SDS011;9958;33.196;-97.114;2024-03-25T03:22:07;3.63;;;2.58;;
19621;SDS011;9958;33.196;-97.114;2024-03-25T03:24:35;6.70;;;2.60;;
19621;SDS011;9958;33.196;-97.114;2024-03-25T03:27:02;3.85;;;2.65;;
19621;SDS011;9958;33.196;-97.114;2024-03-25T03:29:31;3.92;;;2.60;;
19621;SDS011;9958;33.196;-97.114;2024-03-25T03:31:58;2.47;;;2.28;;
19621;SDS011;9958;33.196;-97.114;2024-03-25T03:34:27;4.90;;;2.30;;
19621;SDS011;9958;33.196;-97.114;2024-03-25T03:36:55;4.68;;;2.60;;
19621;SDS011;9958;33.196;-97.114;2024-03-25T03:39:23;7.28;;;3.05;;
19621;SDS011;9958;33.196;-97.114;2024-03-25T03:41:51;2.58;;;2.38;;
19621;SDS011;9958;33.196;-97.114;2024-03-25T03:44:19;3.47;;;2.30;;
19621;SDS011;9958;33.196;-97.114;2024-03-25T03:46:46;3.88;;;2.20;;
19621;SDS011;9958;33.196;-97.114;2024-03-25T03:49:14;3.15;;;2.47;;
19621;SDS011;9958;33.196;-97.114;2024-03-25T03:51:41;2.25;;;2.00;;
19621;SDS011;9958;33.196;-97.114;2024-03-25T03:54:11;7.82;;;2.05;;
19621;SDS011;9958;33.196;-97.114;2024-03-25T03:56:39;5.10;;;2.28;;
19621;SDS011;9958;33.196;-97.114;2024-03-25T03:59:07;2.97;;;2.30;;
19621;SDS011;9958;33.196;-97.114;2024-03-25T04:01:34;4.88;;;2.65;;
19621;SDS011;9958;33.196;-97.114;2024-03-25T04:04:03;6.13;;;2.70;;
19621;SDS011;9958;33.196;-97.114;2024-03-25T04:06:30;5.78;;;2.30;;
19621;SDS011;9958;33.196;-97.114;2024-03-25T04:08:58;5.63;;;2.17;;
19621;SDS011;9958;33.196;-97.114;2024-03-25T04:11:27;4.25;;;1.95;;
19621;SDS011;9958;33.196;-97.114;2024-03-25T04:13:55;5.10;;;2.50;;
19621;SDS011;9958;33.196;-97.114;2024-03-25T04:16:24;3.45;;;1.92;;
19621;SDS011;9958;33.196;-97.114;2024-03-25T04:18:53;2.83;;;2.03;;
19621;SDS011;9958;33.196;-97.114;2024-03-25T04:21:21;3.00;;;2.00;;
19621;SDS011;9958;33.196;-97.114;2024-03-25T04:23:49;6.20;;;2.22;;
19621;SDS011;9958;33.196;-97.114;2024-03-25T04:26:16;2.72;;;1.65;;
19621;SDS011;9958;33.196;-97.114;2024-03-25T04:28:46;3.00;;;1.67;;
19621;SDS011;9958;33.196;-97.114;2024-03-25T04:31:13;6.28;;;2.13;;
19621;SDS011;9958;33.196;-97.114;2024-03-25T04:33:42;4.53;;;2.00;;
19621;SDS011;9958;33.196;-97.114;2024-03-25T04:36:09;3.58;;;2.13;;
19621;SDS011;9958;33.196;-97.114;2024-03-25T04:38:38;3.10;;;1.75;;
19621;SDS011;9958;33.196;-97.114;2024-03-25T04:41:05;4.75;;;1.75;;
19621;SDS011;9958;33.196;-97.114;2024-03-25T04:43:32;6.03;;;2.03;;
19621;SDS011;9958;33.196;-97.114;2024-03-25T04:46:01;4.57;;;2.03;;
19621;SDS011;9958;33.196;-97.114;2024-03-25T04:48:29;6.03;;;2.28;;
19621;SDS011;9958;33.196;-97.114;2024-03-25T04:50:55;8.02;;;1.92;;
19621;SDS011;9958;33.196;-97.114;2024-03-25T04:53:22;5.05;;;1.88;;
19621;SDS011;9958;33.196;-97.114;2024-03-25T04:55:49;4.65;;;2.28;;
19621;SDS011;9958;33.196;-97.114;2024-03-25T04:58:16;5.97;;;2.70;;
19621;SDS011;9958;33.196;-97.114;2024-03-25T05:00:43;7.47;;;2.08;;
19621;SDS011;9958;33.196;-97.114;2024-03-25T05:03:11;6.22;;;1.90;;
19621;SDS011;9958;33.196;-97.114;2024-03-25T05:05:38;6.32;;;2.28;;
19621;SDS011;9958;33.196;-97.114;2024-03-25T05:08:05;4.13;;;1.90;;
19621;SDS011;9958;33.196;-97.114;2024-03-25T05:10:32;4.68;;;1.63;;
19621;SDS011;9958;33.196;-97.114;2024-03-25T05:12:59;4.35;;;1.65;;
19621;SDS011;9958;33.196;-97.114;2024-03-25T05:15:26;3.55;;;1.58;;
19621;SDS011;9958;33.196;-97.114;2024-03-25T05:17:53;1.80;;;1.20;;
19621;SDS011;9958;33.196;-97.114;2024-03-25T05:20:22;6.85;;;1.85;;
19621;SDS011;9958;33.196;-97.114;2024-03-25T05:22:49;5.30;;;1.20;;
19621;SDS011;9958;33.196;-97.114;2024-03-25T05:25:16;4.45;;;1.30;;
19621;SDS011;9958;33.196;-97.114;2024-03-25T05:27:42;1.73;;;1.05;;
19621;SDS011;9958;33.196;-97.114;2024-03-25T05:30:10;4.10;;;1.30;;
19621;SDS011;9958;33.196;-97.114;2024-03-25T05:32:37;5.65;;;1.73;;
19621;SDS011;9958;33.196;-97.114;2024-03-25T05:35:05;2.05;;;1.10;;
19621;SDS011;9958;33.196;-97.114;2024-03-25T05:37:34;1.20;;;1.10;;
19621;SDS011;9958;33.196;-97.114;2024-03-25T05:40:00;1.10;;;0.95;;
19621;SDS011;9958;33.196;-97.114;2024-03-25T05:42:28;1.80;;;0.93;;
19621;SDS011;9958;33.196;-97.114;2024-03-25T05:44:55;1.08;;;0.98;;
19621;SDS011;9958;33.196;-97.114;2024-03-25T05:47:22;3.63;;;1.30;;
19621;SDS011;9958;33.196;-97.114;2024-03-25T05:49:49;4.18;;;1.25;;
19621;SDS011;9958;33.196;-97.114;2024-03-25T05:52:16;6.13;;;1.50;;
19621;SDS011;9958;33.196;-97.114;2024-03-25T05:54:44;10.63;;;2.38;;
19621;SDS011;9958;33.196;-97.114;2024-03-25T05:57:11;9.35;;;1.80;;
19621;SDS011;9958;33.196;-97.114;2024-03-25T05:59:38;4.88;;;2.55;;
19621;SDS011;9958;33.196;-97.114;2024-03-25T06:02:05;17.80;;;2.55;;
19621;SDS011;9958;33.196;-97.114;2024-03-25T06:04:32;16.83;;;2.95;;
19621;SDS011;9958;33.196;-97.114;2024-03-25T06:06:59;7.85;;;1.85;;
19621;SDS011;9958;33.196;-97.114;2024-03-25T06:09:26;8.13;;;2.15;;
19621;SDS011;9958;33.196;-97.114;2024-03-25T06:11:55;18.75;;;2.40;;
19621;SDS011;9958;33.196;-97.114;2024-03-25T06:14:22;20.10;;;3.22;;
19621;SDS011;9958;33.196;-97.114;2024-03-25T06:16:48;10.70;;;1.90;;
19621;SDS011;9958;33.196;-97.114;2024-03-25T06:19:15;17.63;;;2.83;;
19621;SDS011;9958;33.196;-97.114;2024-03-25T06:21:42;9.30;;;2.33;;
19621;SDS011;9958;33.196;-97.114;2024-03-25T06:24:09;13.70;;;2.15;;
19621;SDS011;9958;33.196;-97.114;2024-03-25T06:26:36;12.35;;;2.50;;
19621;SDS011;9958;33.196;-97.114;2024-03-25T06:29:04;11.70;;;1.95;;
19621;SDS011;9958;33.196;-97.114;2024-03-25T06:31:31;22.38;;;2.85;;
19621;SDS011;9958;33.196;-97.114;2024-03-25T06:34:17;17.25;;;3.05;;
19621;SDS011;9958;33.196;-97.114;2024-03-25T06:36:44;20.80;;;2.85;;
19621;SDS011;9958;33.196;-97.114;2024-03-25T06:39:11;16.77;;;2.63;;
19621;SDS011;9958;33.196;-97.114;2024-03-25T06:41:38;19.38;;;2.75;;
19621;SDS011;9958;33.196;-97.114;2024-03-25T06:44:06;11.45;;;2.15;;
19621;SDS011;9958;33.196;-97.114;2024-03-25T06:46:33;10.63;;;2.03;;
19621;SDS011;9958;33.196;-97.114;2024-03-25T06:49:00;23.90;;;3.80;;
19621;SDS011;9958;33.196;-97.114;2024-03-25T06:51:27;16.50;;;2.17;;
19621;SDS011;9958;33.196;-97.114;2024-03-25T06:53:54;15.40;;;2.95;;
19621;SDS011;9958;33.196;-97.114;2024-03-25T06:56:21;12.65;;;2.30;;
19621;SDS011;9958;33.196;-97.114;2024-03-25T06:58:48;10.27;;;1.83;;
19621;SDS011;9958;33.196;-97.114;2024-03-25T07:01:16;17.58;;;3.17;;
19621;SDS011;9958;33.196;-97.114;2024-03-25T07:03:43;12.88;;;2.65;;
19621;SDS011;9958;33.196;-97.114;2024-03-25T07:06:10;10.98;;;1.70;;
19621;SDS011;9958;33.196;-97.114;2024-03-25T07:08:37;10.63;;;1.92;;
19621;SDS011;9958;33.196;-97.114;2024-03-25T07:11:04;8.82;;;2.30;;
19621;SDS011;9958;33.196;-97.114;2024-03-25T07:13:31;10.25;;;2.00;;
19621;SDS011;9958;33.196;-97.114;2024-03-25T07:15:58;9.55;;;2.88;;
19621;SDS011;9958;33.196;-97.114;2024-03-25T07:18:27;12.02;;;2.20;;
19621;SDS011;9958;33.196;-97.114;2024-03-25T07:20:53;10.88;;;1.58;;
19621;SDS011;9958;33.196;-97.114;2024-03-25T07:23:20;9.05;;;2.35;;
19621;SDS011;9958;33.196;-97.114;2024-03-25T07:25:47;12.73;;;2.33;;
19621;SDS011;9958;33.196;-97.114;2024-03-25T07:28:14;16.90;;;2.20;;
19621;SDS011;9958;33.196;-97.114;2024-03-25T07:30:41;9.13;;;1.85;;
19621;SDS011;9958;33.196;-97.114;2024-03-25T07:33:08;11.60;;;2.22;;
19621;SDS011;9958;33.196;-97.114;2024-03-25T07:35:37;18.58;;;2.80;;
19621;SDS011;9958;33.196;-97.114;2024-03-25T07:38:04;12.85;;;2.20;;
19621;SDS011;9958;33.196;-97.114;2024-03-25T07:40:31;9.20;;;2.00;;
19621;SDS011;9958;33.196;-97.114;2024-03-25T07:42:58;9.13;;;1.90;;
19621;SDS011;9958;33.196;-97.114;2024-03-25T07:45:24;6.63;;;2.05;;
19621;SDS011;9958;33.196;-97.114;2024-03-25T07:47:51;11.57;;;2.15;;
19621;SDS011;9958;33.196;-97.114;2024-03-25T07:50:18;6.13;;;2.40;;
19621;SDS011;9958;33.196;-97.114;2024-03-25T07:52:47;7.38;;;1.98;;
19621;SDS011;9958;33.196;-97.114;2024-03-25T07:55:14;9.45;;;2.10;;
19621;SDS011;9958;33.196;-97.114;2024-03-25T07:57:41;4.28;;;1.75;;
19621;SDS011;9958;33.196;-97.114;2024-03-25T08:00:08;12.63;;;2.88;;
19621;SDS011;9958;33.196;-97.114;2024-03-25T08:02:35;8.60;;;2.20;;
19621;SDS011;9958;33.196;-97.114;2024-03-25T08:05:02;8.07;;;1.92;;
19621;SDS011;9958;33.196;-97.114;2024-03-25T08:07:30;10.00;;;2.08;;
19621;SDS011;9958;33.196;-97.114;2024-03-25T08:09:58;9.15;;;2.30;;
19621;SDS011;9958;33.196;-97.114;2024-03-25T08:12:25;17.40;;;2.47;;
19621;SDS011;9958;33.196;-97.114;2024-03-25T08:14:52;7.70;;;2.10;;
19621;SDS011;9958;33.196;-97.114;2024-03-25T08:17:19;8.98;;;2.25;;
19621;SDS011;9958;33.196;-97.114;2024-03-25T08:19:46;10.27;;;2.35;;
19621;SDS011;9958;33.196;-97.114;2024-03-25T08:22:13;11.40;;;2.42;;
19621;SDS011;9958;33.196;-97.114;2024-03-25T08:24:40;8.48;;;2.22;;
19621;SDS011;9958;33.196;-97.114;2024-03-25T08:27:08;10.15;;;2.55;;
19621;SDS011;9958;33.196;-97.114;2024-03-25T08:29:35;11.52;;;2.58;;
19621;SDS011;9958;33.196;-97.114;2024-03-25T08:32:02;11.20;;;2.08;;
19621;SDS011;9958;33.196;-97.114;2024-03-25T08:34:29;8.50;;;1.92;;
19621;SDS011;9958;33.196;-97.114;2024-03-25T08:36:56;6.35;;;2.17;;
19621;SDS011;9958;33.196;-97.114;2024-03-25T08:39:23;6.65;;;1.73;;
19621;SDS011;9958;33.196;-97.114;2024-03-25T08:41:50;8.75;;;3.08;;
19621;SDS011;9958;33.196;-97.114;2024-03-25T08:44:19;6.03;;;1.67;;
19621;SDS011;9958;33.196;-97.114;2024-03-25T08:46:45;10.50;;;1.80;;
19621;SDS011;9958;33.196;-97.114;2024-03-25T08:49:12;7.82;;;2.05;;
19621;SDS011;9958;33.196;-97.114;2024-03-25T08:51:39;9.88;;;1.90;;
19621;SDS011;9958;33.196;-97.114;2024-03-25T08:54:06;10.10;;;1.60;;
19621;SDS011;9958;33.196;-97.114;2024-03-25T08:56:33;8.70;;;2.05;;
19621;SDS011;9958;33.196;-97.114;2024-03-25T08:59:00;8.30;;;2.20;;
19621;SDS011;9958;33.196;-97.114;2024-03-25T09:01:29;9.95;;;2.20;;
19621;SDS011;9958;33.196;-97.114;2024-03-25T09:03:56;8.18;;;2.15;;
19621;SDS011;9958;33.196;-97.114;2024-03-25T09:06:23;6.07;;;2.05;;
19621;SDS011;9958;33.196;-97.114;2024-03-25T09:08:49;6.05;;;2.42;;
19621;SDS011;9958;33.196;-97.114;2024-03-25T09:11:34;10.02;;;1.90;;
19621;SDS011;9958;33.196;-97.114;2024-03-25T09:14:01;6.93;;;2.00;;
19621;SDS011;9958;33.196;-97.114;2024-03-25T09:16:30;3.08;;;1.75;;
19621;SDS011;9958;33.196;-97.114;2024-03-25T09:18:57;11.55;;;2.05;;
19621;SDS011;9958;33.196;-97.114;2024-03-25T09:21:24;5.85;;;1.67;;
19621;SDS011;9958;33.196;-97.114;2024-03-25T09:23:51;6.93;;;2.00;;
19621;SDS011;9958;33.196;-97.114;2024-03-25T09:26:18;7.93;;;2.15;;
19621;SDS011;9958;33.196;-97.114;2024-03-25T09:28:44;5.05;;;2.28;;
19621;SDS011;9958;33.196;-97.114;2024-03-25T09:31:11;5.80;;;1.88;;
19621;SDS011;9958;33.196;-97.114;2024-03-25T09:33:40;3.85;;;2.22;;
19621;SDS011;9958;33.196;-97.114;2024-03-25T09:36:07;8.27;;;2.13;;
19621;SDS011;9958;33.196;-97.114;2024-03-25T09:38:34;6.07;;;1.80;;
19621;SDS011;9958;33.196;-97.114;2024-03-25T09:41:01;6.07;;;2.22;;
19621;SDS011;9958;33.196;-97.114;2024-03-25T09:43:31;4.85;;;2.20;;
19621;SDS011;9958;33.196;-97.114;2024-03-25T09:46:03;2.13;;;1.73;;
19621;SDS011;9958;33.196;-97.114;2024-03-25T09:48:30;4.30;;;2.20;;
19621;SDS011;9958;33.196;-97.114;2024-03-25T09:51:00;3.58;;;2.20;;
19621;SDS011;9958;33.196;-97.114;2024-03-25T09:53:28;4.78;;;2.30;;
19621;SDS011;9958;33.196;-97.114;2024-03-25T09:55:56;3.42;;;2.15;;
19621;SDS011;9958;33.196;-97.114;2024-03-25T09:58:23;4.78;;;1.88;;
19621;SDS011;9958;33.196;-97.114;2024-03-25T10:00:51;4.28;;;2.22;;
19621;SDS011;9958;33.196;-97.114;2024-03-25T10:03:18;5.15;;;2.30;;
19621;SDS011;9958;33.196;-97.114;2024-03-25T10:05:45;6.03;;;2.67;;
19621;SDS011;9958;33.196;-97.114;2024-03-25T10:08:14;6.70;;;2.50;;
19621;SDS011;9958;33.196;-97.114;2024-03-25T10:10:46;7.20;;;2.10;;
19621;SDS011;9958;33.196;-97.114;2024-03-25T10:13:13;2.92;;;2.15;;
19621;SDS011;9958;33.196;-97.114;2024-03-25T10:15:41;6.22;;;1.95;;
19621;SDS011;9958;33.196;-97.114;2024-03-25T10:18:09;3.13;;;1.73;;
19621;SDS011;9958;33.196;-97.114;2024-03-25T10:20:37;5.70;;;1.80;;
19621;SDS011;9958;33.196;-97.114;2024-03-25T10:23:14;5.75;;;2.38;;
19621;SDS011;9958;33.196;-97.114;2024-03-25T10:25:41;3.40;;;1.90;;
19621;SDS011;9958;33.196;-97.114;2024-03-25T10:28:08;8.30;;;2.53;;
19621;SDS011;9958;33.196;-97.114;2024-03-25T10:30:35;5.40;;;2.53;;
19621;SDS011;9958;33.196;-97.114;2024-03-25T10:33:02;10.18;;;2.40;;
19621;SDS011;9958;33.196;-97.114;2024-03-25T10:35:30;6.95;;;2.45;;
19621;SDS011;9958;33.196;-97.114;2024-03-25T10:37:58;4.18;;;1.98;;
19621;SDS011;9958;33.196;-97.114;2024-03-25T10:40:28;10.95;;;2.33;;
19621;SDS011;9958;33.196;-97.114;2024-03-25T10:42:59;7.60;;;2.17;;
19621;SDS011;9958;33.196;-97.114;2024-03-25T10:45:30;4.22;;;2.90;;
19621;SDS011;9958;33.196;-97.114;2024-03-25T10:48:00;11.43;;;2.70;;
19621;SDS011;9958;33.196;-97.114;2024-03-25T10:50:30;7.97;;;2.20;;
19621;SDS011;9958;33.196;-97.114;2024-03-25T10:52:57;14.27;;;3.20;;
19621;SDS011;9958;33.196;-97.114;2024-03-25T10:55:29;7.53;;;2.10;;
19621;SDS011;9958;33.196;-97.114;2024-03-25T10:57:57;10.23;;;2.50;;
19621;SDS011;9958;33.196;-97.114;2024-03-25T11:00:25;4.82;;;2.80;;
19621;SDS011;9958;33.196;-97.114;2024-03-25T11:02:53;12.50;;;3.30;;
19621;SDS011;9958;33.196;-97.114;2024-03-25T11:05:20;4.68;;;2.45;;
19621;SDS011;9958;33.196;-97.114;2024-03-25T11:07:47;7.32;;;2.90;;
19621;SDS011;9958;33.196;-97.114;2024-03-25T11:10:14;6.00;;;2.80;;
19621;SDS011;9958;33.196;-97.114;2024-03-25T11:12:43;7.38;;;2.53;;
19621;SDS011;9958;33.196;-97.114;2024-03-25T11:15:11;4.47;;;2.53;;
19621;SDS011;9958;33.196;-97.114;2024-03-25T11:17:37;7.38;;;2.85;;
19621;SDS011;9958;33.196;-97.114;2024-03-25T11:20:15;8.60;;;2.95;;
19621;SDS011;9958;33.196;-97.114;2024-03-25T11:22:49;7.18;;;3.03;;
19621;SDS011;9958;33.196;-97.114;2024-03-25T11:25:16;9.55;;;4.43;;
19621;SDS011;9958;33.196;-97.114;2024-03-25T11:27:45;7.13;;;4.25;;
19621;SDS011;9958;33.196;-97.114;2024-03-25T11:30:12;5.93;;;3.72;;
19621;SDS011;9958;33.196;-97.114;2024-03-25T11:32:44;7.25;;;3.78;;
19621;SDS011;9958;33.196;-97.114;2024-03-25T11:35:12;12.32;;;3.75;;
19621;SDS011;9958;33.196;-97.114;2024-03-25T11:37:42;8.60;;;4.10;;
19621;SDS011;9958;33.196;-97.114;2024-03-25T11:40:10;7.97;;;3.30;;
19621;SDS011;9958;33.196;-97.114;2024-03-25T11:42:38;10.90;;;4.85;;
19621;SDS011;9958;33.196;-97.114;2024-03-25T11:45:07;8.00;;;3.47;;
19621;SDS011;9958;33.196;-97.114;2024-03-25T11:47:40;8.80;;;2.90;;
19621;SDS011;9958;33.196;-97.114;2024-03-25T11:50:09;10.18;;;3.72;;
19621;SDS011;9958;33.196;-97.114;2024-03-25T11:52:37;8.05;;;3.75;;
19621;SDS011;9958;33.196;-97.114;2024-03-25T11:55:04;7.80;;;3.08;;
19621;SDS011;9958;33.196;-97.114;2024-03-25T11:57:33;10.48;;;2.60;;
19621;SDS011;9958;33.196;-97.114;2024-03-25T12:00:01;4.55;;;2.65;;
19621;SDS011;9958;33.196;-97.114;2024-03-25T12:02:30;10.43;;;2.67;;
19621;SDS011;9958;33.196;-97.114;2024-03-25T12:04:58;11.10;;;2.50;;
19621;SDS011;9958;33.196;-97.114;2024-03-25T12:07:25;8.60;;;2.97;;
19621;SDS011;9958;33.196;-97.114;2024-03-25T12:09:52;15.50;;;3.08;;
19621;SDS011;9958;33.196;-97.114;2024-03-25T12:12:37;7.63;;;2.45;;
19621;SDS011;9958;33.196;-97.114;2024-03-25T12:15:05;6.78;;;2.30;;
19621;SDS011;9958;33.196;-97.114;2024-03-25T12:17:34;9.18;;;2.40;;
19621;SDS011;9958;33.196;-97.114;2024-03-25T12:20:02;12.13;;;2.38;;
19621;SDS011;9958;33.196;-97.114;2024-03-25T12:22:30;9.68;;;2.65;;
19621;SDS011;9958;33.196;-97.114;2024-03-25T12:24:58;9.13;;;2.42;;
19621;SDS011;9958;33.196;-97.114;2024-03-25T12:27:25;11.13;;;2.92;;
19621;SDS011;9958;33.196;-97.114;2024-03-25T12:29:57;8.20;;;2.70;;
19621;SDS011;9958;33.196;-97.114;2024-03-25T12:32:32;11.60;;;3.22;;
19621;SDS011;9958;33.196;-97.114;2024-03-25T12:35:04;7.95;;;2.35;;
19621;SDS011;9958;33.196;-97.114;2024-03-25T12:37:34;4.95;;;2.63;;
19621;SDS011;9958;33.196;-97.114;2024-03-25T12:40:02;7.63;;;2.78;;
19621;SDS011;9958;33.196;-97.114;2024-03-25T12:42:31;10.63;;;2.53;;
19621;SDS011;9958;33.196;-97.114;2024-03-25T12:44:58;11.38;;;2.50;;
19621;SDS011;9958;33.196;-97.114;2024-03-25T12:47:25;13.82;;;3.10;;
19621;SDS011;9958;33.196;-97.114;2024-03-25T12:49:53;5.97;;;2.08;;
19621;SDS011;9958;33.196;-97.114;2024-03-25T12:52:20;10.45;;;2.10;;
19621;SDS011;9958;33.196;-97.114;2024-03-25T12:54:47;14.48;;;2.63;;
19621;SDS011;9958;33.196;-97.114;2024-03-25T12:57:14;8.35;;;2.72;;
19621;SDS011;9958;33.196;-97.114;2024-03-25T12:59:41;14.15;;;2.47;;
19621;SDS011;9958;33.196;-97.114;2024-03-25T13:02:10;15.88;;;3.63;;
19621;SDS011;9958;33.196;-97.114;2024-03-25T13:04:37;9.75;;;2.33;;
19621;SDS011;9958;33.196;-97.114;2024-03-25T13:07:07;14.88;;;2.90;;
19621;SDS011;9958;33.196;-97.114;2024-03-25T13:09:34;18.08;;;3.05;;
19621;SDS011;9958;33.196;-97.114;2024-03-25T13:12:00;13.10;;;2.35;;
19621;SDS011;9958;33.196;-97.114;2024-03-25T13:14:28;10.50;;;2.70;;
19621;SDS011;9958;33.196;-97.114;2024-03-25T13:16:55;9.60;;;2.80;;
19621;SDS011;9958;33.196;-97.114;2024-03-25T13:19:22;10.30;;;2.60;;
19621;SDS011;9958;33.196;-97.114;2024-03-25T13:21:49;8.55;;;2.30;;
19621;SDS011;9958;33.196;-97.114;2024-03-25T13:24:17;15.73;;;2.67;;
19621;SDS011;9958;33.196;-97.114;2024-03-25T13:26:44;11.13;;;2.72;;
19621;SDS011;9958;33.196;-97.114;2024-03-25T13:29:11;11.55;;;3.00;;
19621;SDS011;9958;33.196;-97.114;2024-03-25T13:31:38;8.10;;;3.05;;
19621;SDS011;9958;33.196;-97.114;2024-03-25T13:34:05;11.25;;;3.45;;
19621;SDS011;9958;33.196;-97.114;2024-03-25T13:36:32;12.45;;;3.42;;
19621;SDS011;9958;33.196;-97.114;2024-03-25T13:38:59;18.25;;;3.72;;
19621;SDS011;9958;33.196;-97.114;2024-03-25T13:41:27;9.15;;;2.42;;
19621;SDS011;9958;33.196;-97.114;2024-03-25T13:43:54;11.95;;;2.80;;
19621;SDS011;9958;33.196;-97.114;2024-03-25T13:46:21;13.73;;;2.90;;
19621;SDS011;9958;33.196;-97.114;2024-03-25T13:48:48;23.85;;;3.95;;
19621;SDS011;9958;33.196;-97.114;2024-03-25T13:51:15;10.00;;;2.92;;
19621;SDS011;9958;33.196;-97.114;2024-03-25T13:53:42;17.35;;;3.03;;
19621;SDS011;9958;33.196;-97.114;2024-03-25T13:56:09;12.85;;;2.63;;
19621;SDS011;9958;33.196;-97.114;2024-03-25T13:58:38;8.65;;;2.38;;
19621;SDS011;9958;33.196;-97.114;2024-03-25T14:01:04;13.05;;;3.05;;
19621;SDS011;9958;33.196;-97.114;2024-03-25T14:03:31;12.95;;;2.78;;
19621;SDS011;9958;33.196;-97.114;2024-03-25T14:05:58;17.73;;;3.22;;
19621;SDS011;9958;33.196;-97.114;2024-03-25T14:08:25;8.85;;;2.50;;
19621;SDS011;9958;33.196;-97.114;2024-03-25T14:10:59;13.25;;;2.80;;
19621;SDS011;9958;33.196;-97.114;2024-03-25T14:13:27;13.10;;;2.90;;
19621;SDS011;9958;33.196;-97.114;2024-03-25T14:15:56;14.38;;;2.38;;
19621;SDS011;9958;33.196;-97.114;2024-03-25T14:18:23;18.50;;;3.30;;
19621;SDS011;9958;33.196;-97.114;2024-03-25T14:20:51;13.23;;;2.20;;
19621;SDS011;9958;33.196;-97.114;2024-03-25T14:23:18;14.10;;;3.28;;
19621;SDS011;9958;33.196;-97.114;2024-03-25T14:25:45;13.75;;;2.55;;
19621;SDS011;9958;33.196;-97.114;2024-03-25T14:28:12;14.63;;;2.47;;
19621;SDS011;9958;33.196;-97.114;2024-03-25T14:30:39;10.55;;;2.50;;
19621;SDS011;9958;33.196;-97.114;2024-03-25T14:33:07;15.70;;;2.47;;
19621;SDS011;9958;33.196;-97.114;2024-03-25T14:35:34;10.43;;;2.63;;